• Join FlightAware (Why Join?)
  • Login
  • US Flag 
05:44PM EDT


 

Airport Tracker/Info


-or-


 

Live Flight TrackerFlight Track Log ✈ N273SK ✈ 23-Apr-2013 ✈ KCVG - KRIC

Flight Track Log - Related Links

Times and Time Zones

All times are in EDT time to prevent confusion due to time zone crossing. See the N273SK flight status page for this flight to view local times or setup timezone preferences in your user account.

Time Position Orientation Groundspeed Altitude Reporting Facility
EDT Latitude Longitude Course Direction KTS MPH feet Rate Location/Type
08:04PM 39.0333 -84.6667 106° East 155 178 1,600  Level Cincinnati TRACON
08:04PM 39.0167 -84.6500 142° Southeast 171 197 2,700 2,040 Climbing Cincinnati TRACON
08:06PM 39.0000 -84.5667 104° East 241 277 4,900 2,160 Climbing Cincinnati TRACON
08:06PM 38.9833 -84.4833 104° East 261 300 7,100 2,460 Climbing Cincinnati TRACON
08:07PM 38.9385 -84.2486 113° Southeast  Level FlightAware Approximate
08:07PM 38.9667 -84.3833 102° East 283 326 9,600  Level Cincinnati TRACON
08:08PM 38.9000 -84.1110 106° East  Level FlightAware Approximate
08:08PM 38.9525 -84.3542 122° Southeast 286 329 10,300  Level Indianapolis Center
08:09PM 38.8676 -83.9705 106° East  Level FlightAware Approximate
08:09PM 38.9264 -84.2497 108° East 301 346 12,600  Level Indianapolis Center
08:10PM 38.8989 -84.1353 107° East 326 375 14,000 1,800 Climbing Indianapolis Center
08:11PM 38.8650 -83.9931 107° East 350 403 16,300 1,860 Climbing Indianapolis Center
08:12PM 38.8392 -83.8703 105° East 354 407 17,900 1,800 Climbing Indianapolis Center
08:13PM 38.8122 -83.7436 105° East 363 418 20,000 1,860 Climbing Indianapolis Center
08:14PM 38.7839 -83.6147 106° East 370 426 21,800 1,380 Climbing Indianapolis Center
08:15PM 38.7639 -83.4775 101° East 390 449 22,900 1,020 Climbing Indianapolis Center
08:16PM 38.7647 -83.3275 90° East 418 481 24,000 1,020 Climbing Indianapolis Center
08:17PM 38.7636 -83.1742 90° East 427 491 25,100 1,020 Climbing Indianapolis Center
08:18PM 38.7631 -83.0222 90° East 437 503 26,100 900 Climbing Indianapolis Center
08:19PM 38.7431 -82.8353 98° East 449 517 27,000 420 Climbing Indianapolis Center
08:20PM 38.6878 -82.6847 115° Southeast 463 533 27,000  Level Indianapolis Center
08:21PM 38.6314 -82.5308 115° Southeast 478 550 27,000  Level Indianapolis Center
08:22PM 38.5736 -82.3725 115° Southeast 489 563 27,000  Level Indianapolis Center
08:23PM 38.5158 -82.2167 115° Southeast 489 563 27,000  Level Indianapolis Center
08:24PM 38.4603 -82.0672 115° Southeast 472 543 27,000  Level Indianapolis Center
08:25PM 38.4058 -81.9194 115° Southeast 465 535 27,000  Level Indianapolis Center
08:26PM 38.3458 -81.7453 114° Southeast 453 521 27,000  Level Indianapolis Center
08:27PM 38.3208 -81.5892 101° East 454 522 27,000  Level Indianapolis Center
08:29PM 38.2964 -81.4336 101° East 453 521 27,000  Level Indianapolis Center
08:30PM 38.2719 -81.2783 101° East 452 520 27,000  Level Indianapolis Center
08:31PM 38.2467 -81.1225 102° East 453 521 27,000  Level Indianapolis Center
08:31PM 38.2361 -81.0614 102° East 453 521 27,000  Level Washington Center
08:32PM 38.2078 -80.9033 103° East 453 521 27,000  Level Washington Center
08:33PM 38.1833 -80.7511 102° East 448 516 27,000  Level Washington Center
08:34PM 38.1586 -80.5961 101° East 448 516 27,000 -300 Level Washington Center
08:35PM 38.1353 -80.4547 102° East 448 516 26,400 -780 Descending Washington Center
08:36PM 38.1081 -80.2944 102° East 453 521 25,500 -900 Descending Washington Center
08:37PM 38.0811 -80.1319 102° East 459 528 24,600 -900 Descending Washington Center
08:38PM 38.0517 -79.9692 103° East 464 534 23,700 -1,200 Descending Washington Center
08:39PM 38.0244 -79.8017 102° East 459 528 22,200 -1,380 Descending Washington Center
08:40PM 38.0019 -79.6606 101° East 432 497 21,000 -600 Descending Washington Center
08:41PM 37.9772 -79.5303 103° East 402 463 21,000  Level Washington Center
08:42PM 37.9544 -79.3947 102° East 387 445 21,000  Level Washington Center
08:43PM 37.9275 -79.2564 104° East 387 445 21,000  Level Washington Center
08:44PM 37.9064 -79.1292 102° East 399 459 21,000  Level Washington Center
08:45PM 37.8706 -78.9933 108° East 405 466 21,000 -840 Level Washington Center
08:46PM 37.8306 -78.8600 111° Southeast 405 466 19,400 -1,740 Descending Washington Center
08:47PM 37.7925 -78.7242 109° East 405 466 17,600 -1,860 Descending Washington Center
08:48PM 37.7561 -78.5967 110° East 400 460 15,700 -2,100 Descending Washington Center
08:49PM 37.7175 -78.4639 110° East 387 445 13,400 -2,160 Descending Washington Center
08:50PM 37.6847 -78.3497 110° East 363 418 11,400 -1,740 Descending Washington Center
08:51PM 37.6519 -78.2411 111° Southeast 345 397 10,000 -1,200 Descending Washington Center
08:52PM 37.6228 -78.1403 110° East 316 364 9,000 -540 Descending Washington Center
08:53PM 37.5933 -78.0478 112° Southeast 297 342 9,000 -120 Level Washington Center
08:54PM 37.5617 -77.9575 114° Southeast 282 325 8,800 -1,020 Descending Washington Center
08:55PM 37.5153 -77.8775 126° Southeast 282 325 7,000 -1,860 Descending Washington Center
08:56PM 37.4708 -77.8003 126° Southeast 282 325 5,100 -1,500 Descending Washington Center
08:57PM 37.4264 -77.7231 126° Southeast 277 319 4,000 -600 Descending Washington Center
08:58PM 37.3839 -77.6461 125° Southeast 277 319 4,000 -180 Level Washington Center
09:00PM 37.3000 -77.4500 118° Southeast 274 315 3,500 -480 Descending Potomac TRACON
09:01PM 37.3333 -77.3667 63° Northeast 255 293 2,400 -780 Descending Potomac TRACON
09:02PM 37.3667 -77.3000 58° Northeast 226 260 2,000 -420 Descending Potomac TRACON